Hillsgrove, Pennsylvania
Current Conditions -  °F | °C
As of 11:54 AM on Sunday 23 Nov 2014 (Local Time) from KIPT Reporting Station
Broken Clouds Broken Clouds  
Wind Chill: 42°   Ceiling: 11000
Heat Index: 42°   Visibility: 10mi
Dew Point: 28°   Wind: 0mph
Humidity: 58%   Direction: NA
Pressure: 30.14"   Gusts: NA
Location:  41.44°N, 76.71°W
Report Text: KIPT 231654Z 00000KT 10SM BKN110 06/M02 A3014 RMK AO2 SLP210 T00561022
Loading
Personal Weather Stations






























Interactive Weather Map New forecast layout! Learn more

10-Day Weather Forecast

Advertisements
Track Severe Weather on mobile